Time;durP1;ratioP1;P1;durP2;ratioP2;P2;SDS_P1;SDS_P2;PMS_P1;PMS_P2;Temp;Humidity;BMP_temperature;BMP_pressure;BME280_temperature;BME280_humidity;BME280_pressure;Samples;Min_cycle;Max_cycle;Signal;HPM_P1;HPM_P2
2023/12/10 00:00:09;;;;;;;34.47;4.78;;;8.40;99.90;;;;;;5089750;28;20040;-79
2023/12/10 00:02:35;;;;;;;31.23;4.97;;;8.40;99.90;;;;;;5071184;28;20086;-80
2023/12/10 00:05:00;;;;;;;30.00;4.90;;;8.40;99.90;;;;;;5088399;28;20075;-87
2023/12/10 00:07:26;;;;;;;24.42;4.20;;;8.40;99.90;;;;;;5093725;28;20483;-79
2023/12/10 00:09:52;;;;;;;34.75;4.40;;;8.40;99.90;;;;;;5092396;28;20789;-78
2023/12/10 00:12:17;;;;;;;41.00;5.30;;;8.40;99.90;;;;;;5093770;28;20040;-80
2023/12/10 00:14:43;;;;;;;22.73;4.45;;;8.40;99.90;;;;;;5093673;28;20040;-83
2023/12/10 00:17:09;;;;;;;34.50;4.22;;;8.40;99.90;;;;;;5092840;28;20043;-84
2023/12/10 00:19:34;;;;;;;28.33;5.55;;;8.40;99.90;;;;;;5093941;28;20044;-81
2023/12/10 00:22:00;;;;;;;28.50;4.85;;;8.40;99.90;;;;;;5093097;28;20090;-80
2023/12/10 00:24:26;;;;;;;24.63;3.78;;;8.30;99.90;;;;;;5091812;28;20047;-79
2023/12/10 00:26:52;;;;;;;37.42;4.50;;;8.30;99.90;;;;;;5091941;28;20260;-79
2023/12/10 00:29:18;;;;;;;27.98;4.82;;;8.30;99.90;;;;;;5092177;28;20119;-80
2023/12/10 00:31:44;;;;;;;36.03;4.88;;;8.40;99.90;;;;;;5091178;28;20482;-79
2023/12/10 00:34:10;;;;;;;26.58;4.20;;;8.30;99.90;;;;;;5092155;28;20051;-79
2023/12/10 00:36:36;;;;;;;34.22;4.55;;;8.30;99.90;;;;;;5093477;28;20123;-81
2023/12/10 00:39:05;;;;;;;31.38;5.28;;;8.30;99.90;;;;;;5093220;28;20132;-77
2023/12/10 00:41:33;;;;;;;34.05;4.40;;;8.30;99.90;;;;;;5093146;28;20113;-79
2023/12/10 00:43:59;;;;;;;36.28;5.43;;;8.40;99.90;;;;;;5091328;28;20044;-79
2023/12/10 00:46:25;;;;;;;26.25;4.22;;;8.30;99.90;;;;;;5084254;28;20457;-78
2023/12/10 00:48:50;;;;;;;27.08;4.25;;;8.40;99.90;;;;;;5092813;28;20457;-84
2023/12/10 00:51:23;;;;;;;27.13;4.80;;;8.40;99.90;;;;;;5091435;28;20051;-87
2023/12/10 00:53:49;;;;;;;22.02;3.65;;;8.30;99.90;;;;;;5092965;28;20051;-78
2023/12/10 00:56:15;;;;;;;21.33;4.38;;;8.40;99.90;;;;;;5086803;28;20070;-83
2023/12/10 00:58:42;;;;;;;23.63;3.40;;;8.40;99.90;;;;;;5091267;28;20051;-82
2023/12/10 01:01:07;;;;;;;20.42;2.97;;;8.30;99.90;;;;;;5091419;28;20051;-79
2023/12/10 01:03:34;;;;;;;23.60;3.42;;;8.30;99.90;;;;;;5086792;28;20048;-78
2023/12/10 01:06:03;;;;;;;27.63;4.10;;;8.20;99.90;;;;;;5092543;28;20107;-80
2023/12/10 01:08:29;;;;;;;21.67;3.55;;;8.10;99.90;;;;;;5091171;28;20123;-79
2023/12/10 01:10:55;;;;;;;23.27;3.70;;;8.10;99.90;;;;;;5092623;28;20173;-78
2023/12/10 01:13:24;;;;;;;25.25;3.92;;;8.00;99.90;;;;;;5091856;28;20108;-80
2023/12/10 01:15:50;;;;;;;24.52;3.83;;;8.00;99.90;;;;;;5091737;28;20036;-80
2023/12/10 01:18:15;;;;;;;27.85;4.35;;;8.10;99.90;;;;;;5090746;28;20505;-80
2023/12/10 01:20:42;;;;;;;28.92;5.40;;;7.90;99.90;;;;;;5092042;28;20111;-78
2023/12/10 01:23:08;;;;;;;20.00;4.10;;;8.00;99.90;;;;;;5091259;28;20497;-79
2023/12/10 01:25:34;;;;;;;25.33;4.10;;;7.90;99.90;;;;;;5084629;28;20047;-82
2023/12/10 01:28:00;;;;;;;33.47;4.63;;;7.90;99.90;;;;;;5073310;28;20055;-78
2023/12/10 01:30:26;;;;;;;31.85;4.45;;;7.80;99.90;;;;;;5073491;28;20052;-79
2023/12/10 01:32:53;;;;;;;27.58;4.60;;;8.00;99.90;;;;;;5092289;28;20491;-80
2023/12/10 01:35:18;;;;;;;26.00;3.72;;;7.80;99.90;;;;;;5079714;28;20534;-78
2023/12/10 01:37:44;;;;;;;28.50;3.80;;;7.70;99.90;;;;;;5090882;28;20052;-79
2023/12/10 01:40:11;;;;;;;33.17;4.68;;;7.80;99.90;;;;;;5090781;28;20040;-79
2023/12/10 01:42:36;;;;;;;28.58;4.60;;;7.70;99.90;;;;;;5090682;28;20044;-81
2023/12/10 01:45:05;;;;;;;24.52;3.80;;;7.80;99.90;;;;;;5096807;28;20490;-77
2023/12/10 01:47:34;;;;;;;21.85;3.88;;;7.70;99.90;;;;;;5085702;28;20372;-84
2023/12/10 01:50:04;;;;;;;26.55;4.70;;;7.80;99.90;;;;;;5093709;28;20052;-77
2023/12/10 01:52:34;;;;;;;29.02;4.38;;;7.70;99.90;;;;;;5112289;28;20079;-79
2023/12/10 01:55:03;;;;;;;27.88;4.45;;;7.70;99.90;;;;;;5111924;28;20539;-78
2023/12/10 01:57:30;;;;;;;28.35;4.47;;;7.70;99.90;;;;;;5112082;28;20102;-80
2023/12/10 01:59:57;;;;;;;30.85;4.85;;;7.70;99.90;;;;;;5112076;28;20036;-84
2023/12/10 02:02:23;;;;;;;36.17;4.97;;;7.70;99.90;;;;;;5112423;28;20062;-87
2023/12/10 02:04:53;;;;;;;34.35;4.90;;;7.70;99.90;;;;;;5093667;28;20054;-83
2023/12/10 02:07:22;;;;;;;29.27;4.80;;;7.70;99.90;;;;;;5111552;28;20047;-81
2023/12/10 02:09:49;;;;;;;31.88;4.28;;;7.70;99.90;;;;;;5094175;28;20919;-80
2023/12/10 02:12:18;;;;;;;29.95;4.55;;;7.70;99.90;;;;;;5112043;28;20043;-83
2023/12/10 02:14:44;;;;;;;28.42;4.50;;;7.70;99.90;;;;;;5076383;28;20129;-78
2023/12/10 02:17:10;;;;;;;41.05;5.18;;;7.70;99.90;;;;;;5093188;28;20039;-78
2023/12/10 02:19:36;;;;;;;29.60;4.03;;;7.70;99.90;;;;;;5111782;28;20040;-79
2023/12/10 02:22:04;;;;;;;21.38;3.25;;;7.70;99.90;;;;;;5092803;28;20044;-79
2023/12/10 02:24:50;;;;;;;30.60;4.35;;;7.70;99.90;;;;;;5111217;28;20047;-79
2023/12/10 02:27:16;;;;;;;30.00;4.53;;;7.70;99.90;;;;;;5093577;28;20040;-88
2023/12/10 02:29:42;;;;;;;28.85;3.72;;;7.70;99.90;;;;;;5092508;28;20083;-82
2023/12/10 02:32:08;;;;;;;30.98;4.80;;;7.70;99.90;;;;;;5111554;28;20071;-78
2023/12/10 02:34:35;;;;;;;22.00;3.63;;;7.70;99.90;;;;;;5093302;28;20044;-89
2023/12/10 02:37:01;;;;;;;37.50;5.75;;;7.70;99.90;;;;;;5111307;28;20063;-82
2023/12/10 02:39:26;;;;;;;22.65;3.97;;;7.70;99.90;;;;;;5092949;28;20047;-79
2023/12/10 02:41:52;;;;;;;24.85;4.05;;;7.60;99.90;;;;;;5111435;28;20460;-87
2023/12/10 02:44:18;;;;;;;25.98;4.68;;;7.70;99.90;;;;;;5092406;28;20618;-77
2023/12/10 02:46:44;;;;;;;26.92;4.25;;;7.60;99.90;;;;;;5092961;28;20090;-83
2023/12/10 02:49:10;;;;;;;22.38;3.80;;;7.70;99.90;;;;;;5092773;28;20398;-79
2023/12/10 02:51:36;;;;;;;28.40;4.90;;;7.60;99.90;;;;;;5110929;28;20072;-78
2023/12/10 02:54:01;;;;;;;33.45;4.55;;;7.90;99.90;;;;;;5109137;28;20039;-78
2023/12/10 02:56:27;;;;;;;28.02;4.25;;;7.60;99.90;;;;;;5110703;27;20122;-77
2023/12/10 02:58:53;;;;;;;28.00;3.65;;;7.70;99.90;;;;;;5073620;28;20043;-78
2023/12/10 03:01:18;;;;;;;29.50;3.97;;;7.60;99.90;;;;;;5109608;27;20375;-78
2023/12/10 03:03:44;;;;;;;25.88;4.32;;;7.60;99.90;;;;;;5108800;27;20176;-78
2023/12/10 03:06:10;;;;;;;28.27;4.50;;;7.50;99.90;;;;;;5110346;27;20530;-78
2023/12/10 03:08:36;;;;;;;26.27;4.30;;;7.80;99.90;;;;;;5092092;28;20483;-78
2023/12/10 03:11:02;;;;;;;29.95;4.35;;;7.50;99.90;;;;;;5092318;28;20085;-83
2023/12/10 03:13:27;;;;;;;34.58;4.22;;;7.50;99.90;;;;;;5091890;28;20115;-77
2023/12/10 03:15:53;;;;;;;29.13;4.18;;;7.50;99.90;;;;;;5092387;28;20043;-78
2023/12/10 03:18:19;;;;;;;25.75;4.68;;;7.50;99.90;;;;;;5092139;28;20043;-82
2023/12/10 03:20:45;;;;;;;28.73;3.95;;;7.40;99.90;;;;;;5075681;28;20043;-89
2023/12/10 03:23:10;;;;;;;24.95;3.58;;;7.50;99.90;;;;;;5110261;28;20051;-83
2023/12/10 03:25:36;;;;;;;24.98;3.97;;;7.80;99.90;;;;;;5110046;28;20164;-80
2023/12/10 03:28:02;;;;;;;29.67;4.05;;;7.50;99.90;;;;;;5075026;28;20139;-79
2023/12/10 03:30:27;;;;;;;26.75;4.00;;;7.50;99.90;;;;;;5110695;28;20094;-77
2023/12/10 03:32:53;;;;;;;19.50;2.88;;;7.40;99.90;;;;;;5110212;28;20047;-82
2023/12/10 03:35:19;;;;;;;16.92;3.50;;;7.40;99.90;;;;;;5092476;28;20041;-81
2023/12/10 03:37:44;;;;;;;19.05;3.67;;;7.50;99.90;;;;;;5110524;28;20527;-82
2023/12/10 03:40:10;;;;;;;14.93;2.75;;;7.40;99.90;;;;;;5109999;28;20039;-82
2023/12/10 03:42:36;;;;;;;13.50;2.58;;;7.50;99.90;;;;;;5110514;28;20028;-79
2023/12/10 03:45:02;;;;;;;17.77;2.50;;;7.40;99.90;;;;;;5109617;28;20059;-79
2023/12/10 03:47:27;;;;;;;14.55;2.33;;;7.40;99.90;;;;;;5110605;28;20059;-85
2023/12/10 03:49:53;;;;;;;15.98;2.17;;;7.50;99.90;;;;;;5110374;28;20039;-77
2023/12/10 03:52:19;;;;;;;13.15;2.53;;;7.40;99.90;;;;;;5110459;28;20076;-77
2023/12/10 03:54:44;;;;;;;12.70;2.33;;;7.40;99.90;;;;;;5109747;28;20039;-83
2023/12/10 03:57:10;;;;;;;17.67;2.78;;;7.40;99.90;;;;;;5091197;28;20047;-80
2023/12/10 03:59:36;;;;;;;17.27;2.58;;;7.40;99.90;;;;;;5109882;28;20049;-78
2023/12/10 04:02:02;;;;;;;7.00;1.38;;;7.40;99.90;;;;;;5109670;28;20043;-82
2023/12/10 04:04:28;;;;;;;13.50;2.50;;;7.50;99.90;;;;;;5091659;28;20420;-79
2023/12/10 04:06:53;;;;;;;11.80;2.22;;;7.50;99.90;;;;;;5109795;28;20522;-80
2023/12/10 04:09:19;;;;;;;13.45;1.50;;;7.70;99.90;;;;;;5074690;28;20391;-82
2023/12/10 04:11:45;;;;;;;7.88;1.67;;;7.60;99.90;;;;;;5091188;28;20379;-78
2023/12/10 04:14:10;;;;;;;13.80;2.10;;;7.60;99.90;;;;;;5074223;28;20391;-76
2023/12/10 04:16:37;;;;;;;9.70;1.33;;;7.70;99.90;;;;;;5109663;28;20363;-78
2023/12/10 04:19:03;;;;;;;11.38;1.50;;;7.70;99.90;;;;;;5109998;28;20059;-78
2023/12/10 04:21:29;;;;;;;10.25;1.83;;;7.70;99.90;;;;;;5109255;28;20037;-78
2023/12/10 04:23:54;;;;;;;11.05;2.13;;;7.70;99.90;;;;;;5090734;28;20066;-82
2023/12/10 04:26:21;;;;;;;14.55;2.17;;;7.70;99.90;;;;;;5109929;28;20043;-78
2023/12/10 04:28:47;;;;;;;11.95;1.90;;;8.00;99.90;;;;;;5101036;28;20039;-81
2023/12/10 04:31:13;;;;;;;12.77;1.65;;;7.80;99.90;;;;;;5091893;28;20100;-82
2023/12/10 04:33:38;;;;;;;11.05;2.03;;;7.80;99.90;;;;;;5091805;28;20040;-80
2023/12/10 04:36:05;;;;;;;14.98;2.45;;;7.80;99.90;;;;;;5110187;28;20075;-81
2023/12/10 04:38:30;;;;;;;8.90;1.45;;;7.80;99.90;;;;;;5109930;28;20039;-80
2023/12/10 04:40:56;;;;;;;13.00;2.17;;;7.80;99.90;;;;;;5109799;28;20069;-80
2023/12/10 04:43:22;;;;;;;19.42;2.42;;;8.00;99.90;;;;;;5109260;28;20035;-79
2023/12/10 04:45:48;;;;;;;12.38;2.38;;;8.10;99.90;;;;;;5109142;28;20380;-87
2023/12/10 04:48:13;;;;;;;18.40;2.42;;;8.00;99.90;;;;;;5091599;28;20044;-84
2023/12/10 04:50:40;;;;;;;11.15;2.03;;;8.10;99.90;;;;;;5109878;28;20047;-86
2023/12/10 04:53:06;;;;;;;21.73;2.95;;;8.00;99.90;;;;;;5112850;28;20566;-82
2023/12/10 04:55:32;;;;;;;19.27;2.08;;;8.10;99.90;;;;;;5113318;28;20040;-79
2023/12/10 04:57:59;;;;;;;21.10;2.88;;;8.00;99.90;;;;;;5095168;28;20056;-83
2023/12/10 05:00:24;;;;;;;17.67;3.13;;;8.10;99.90;;;;;;5113071;28;20031;-81
2023/12/10 05:02:50;;;;;;;28.95;3.95;;;8.10;99.90;;;;;;5095392;28;20620;-82
2023/12/10 05:05:16;;;;;;;13.05;2.45;;;8.30;99.90;;;;;;5112685;28;20051;-78
2023/12/10 05:07:42;;;;;;;23.95;3.55;;;8.10;99.90;;;;;;5095152;28;20040;-81
2023/12/10 05:10:09;;;;;;;24.15;3.38;;;8.10;99.90;;;;;;5094758;28;20048;-80
2023/12/10 05:12:34;;;;;;;16.15;2.97;;;8.20;99.90;;;;;;5113128;28;20074;-84
2023/12/10 05:15:00;;;;;;;18.40;3.20;;;8.20;99.90;;;;;;5112200;28;20078;-81
2023/12/10 05:17:26;;;;;;;19.70;2.50;;;8.20;99.90;;;;;;5094623;28;20043;-81
2023/12/10 05:19:52;;;;;;;23.98;3.65;;;8.20;99.90;;;;;;5113757;28;20039;-84
2023/12/10 05:22:19;;;;;;;12.32;2.15;;;8.10;99.90;;;;;;5094655;28;20452;-80
2023/12/10 05:24:45;;;;;;;16.15;2.35;;;8.20;99.90;;;;;;5112936;28;20047;-87
2023/12/10 05:27:11;;;;;;;20.58;3.08;;;8.30;99.90;;;;;;5112182;28;20036;-82
2023/12/10 05:29:36;;;;;;;17.33;1.88;;;8.20;99.90;;;;;;5113783;28;20042;-84
2023/12/10 05:32:03;;;;;;;19.23;2.90;;;8.30;99.90;;;;;;5112895;28;20043;-80
2023/12/10 05:34:29;;;;;;;16.17;2.53;;;8.20;99.90;;;;;;5094239;28;20117;-79
2023/12/10 05:36:55;;;;;;;18.48;2.25;;;8.30;99.90;;;;;;5112565;28;20051;-82
2023/12/10 05:39:21;;;;;;;24.40;2.83;;;8.20;99.90;;;;;;5094592;28;20079;-80
2023/12/10 05:41:46;;;;;;;15.32;1.83;;;8.20;99.90;;;;;;5094333;28;20109;-85
2023/12/10 05:44:12;;;;;;;12.75;1.83;;;8.20;99.90;;;;;;5112207;28;20070;-83
2023/12/10 05:46:38;;;;;;;10.27;1.70;;;8.10;99.90;;;;;;5089788;28;20146;-82
2023/12/10 05:49:04;;;;;;;7.20;1.75;;;8.10;99.90;;;;;;5092248;28;20078;-83
2023/12/10 05:51:29;;;;;;;13.88;1.45;;;8.10;99.90;;;;;;5092563;28;20031;-81
2023/12/10 05:53:56;;;;;;;7.50;0.93;;;8.40;99.90;;;;;;5092547;28;20060;-81
2023/12/10 05:56:22;;;;;;;5.93;1.08;;;8.10;99.90;;;;;;5092609;28;20044;-84
2023/12/10 05:58:48;;;;;;;10.18;1.35;;;8.20;99.90;;;;;;5090557;28;20040;-81
2023/12/10 06:01:14;;;;;;;8.65;1.35;;;8.10;99.90;;;;;;5092322;28;20215;-81
2023/12/10 06:03:39;;;;;;;8.38;1.25;;;8.10;99.90;;;;;;5090576;28;20589;-88
2023/12/10 06:06:05;;;;;;;7.05;1.98;;;8.10;99.90;;;;;;5090844;28;20044;-83
2023/12/10 06:08:31;;;;;;;7.53;1.50;;;8.10;99.90;;;;;;5091706;28;20115;-82
2023/12/10 06:10:57;;;;;;;7.00;1.00;;;8.10;99.90;;;;;;5091899;28;20058;-82
2023/12/10 06:13:22;;;;;;;7.75;1.30;;;8.10;99.90;;;;;;5089958;28;20472;-84
2023/12/10 06:15:48;;;;;;;11.68;1.80;;;8.10;99.90;;;;;;5089714;28;20051;-83
2023/12/10 06:18:14;;;;;;;14.20;1.40;;;8.10;99.90;;;;;;5090674;28;20036;-85
2023/12/10 06:20:39;;;;;;;11.23;1.52;;;8.10;99.90;;;;;;5073177;28;20396;-80
2023/12/10 06:23:05;;;;;;;13.68;1.65;;;8.10;99.90;;;;;;5089902;28;20048;-79
2023/12/10 06:25:31;;;;;;;10.75;1.27;;;8.10;99.90;;;;;;5090061;28;20043;-81
2023/12/10 06:27:56;;;;;;;14.82;2.13;;;8.10;99.90;;;;;;5091495;28;20455;-82
2023/12/10 06:30:23;;;;;;;11.73;1.85;;;8.20;99.90;;;;;;5091512;28;20055;-80
2023/12/10 06:32:49;;;;;;;13.55;2.35;;;8.20;99.90;;;;;;5091117;28;20055;-84
2023/12/10 06:35:15;;;;;;;16.33;1.90;;;8.10;99.90;;;;;;5089929;28;20051;-82
2023/12/10 06:37:41;;;;;;;15.27;2.20;;;8.10;99.90;;;;;;5091294;28;20044;-81
2023/12/10 06:40:07;;;;;;;16.33;2.47;;;8.10;99.90;;;;;;5091272;28;20047;-87
2023/12/10 06:42:34;;;;;;;14.18;2.40;;;8.10;99.90;;;;;;5091097;28;20399;-77
2023/12/10 06:45:00;;;;;;;13.45;2.25;;;8.20;99.90;;;;;;5089705;28;20153;-80
2023/12/10 06:47:26;;;;;;;12.50;2.03;;;8.70;99.90;;;;;;5089669;28;20044;-86
2023/12/10 06:49:52;;;;;;;12.30;1.83;;;8.20;99.90;;;;;;5089177;28;20051;-80
2023/12/10 06:52:17;;;;;;;12.45;1.85;;;8.20;99.90;;;;;;5083700;28;20395;-83
2023/12/10 06:54:44;;;;;;;10.05;1.60;;;8.30;99.90;;;;;;5091118;28;20051;-83
2023/12/10 06:57:10;;;;;;;8.38;1.13;;;8.20;99.90;;;;;;5075038;28;20080;-81
2023/12/10 06:59:36;;;;;;;10.38;1.27;;;8.30;99.90;;;;;;5091081;28;20044;-81
2023/12/10 07:02:01;;;;;;;7.55;1.17;;;8.20;99.90;;;;;;5086432;28;20044;-82
2023/12/10 07:04:27;;;;;;;11.85;1.52;;;8.30;99.90;;;;;;5088489;28;20047;-82
2023/12/10 07:06:53;;;;;;;7.13;1.05;;;8.20;99.90;;;;;;5090768;28;20503;-82
2023/12/10 07:09:19;;;;;;;5.38;0.70;;;8.20;99.90;;;;;;5090960;28;20036;-86
2023/12/10 07:11:44;;;;;;;10.00;1.02;;;8.20;99.90;;;;;;5088970;28;20052;-86
2023/12/10 07:14:10;;;;;;;4.18;0.90;;;8.40;99.90;;;;;;5090997;28;20043;-81
2023/12/10 07:16:36;;;;;;;6.95;0.70;;;8.20;99.90;;;;;;5089011;28;20052;-81
2023/12/10 07:19:02;;;;;;;6.53;0.82;;;8.20;99.90;;;;;;5072381;28;20376;-82
2023/12/10 07:21:28;;;;;;;9.18;1.13;;;8.20;99.90;;;;;;5090269;28;20048;-80
2023/12/10 07:23:53;;;;;;;5.70;1.05;;;8.10;99.90;;;;;;5085249;28;20040;-80
2023/12/10 07:26:23;;;;;;;7.93;1.48;;;8.10;99.90;;;;;;5090487;28;20071;-81
2023/12/10 07:28:50;;;;;;;6.55;1.30;;;8.10;99.90;;;;;;5090749;28;20090;-82
2023/12/10 07:31:17;;;;;;;9.60;1.17;;;8.20;99.90;;;;;;5088955;28;20052;-81
2023/12/10 07:33:42;;;;;;;10.45;1.50;;;8.10;99.90;;;;;;5088444;28;20056;-83
2023/12/10 07:36:08;;;;;;;9.15;1.20;;;8.10;99.90;;;;;;5088669;28;20043;-83
2023/12/10 07:38:34;;;;;;;11.88;1.73;;;8.10;99.90;;;;;;5090396;28;20133;-81
2023/12/10 07:41:00;;;;;;;11.35;1.90;;;8.10;99.90;;;;;;5090169;28;20071;-81
2023/12/10 07:43:25;;;;;;;19.35;2.03;;;8.10;99.90;;;;;;5087743;28;20051;-86
2023/12/10 07:45:51;;;;;;;15.80;2.00;;;8.10;99.90;;;;;;5100309;28;20132;-82
2023/12/10 07:48:19;;;;;;;15.82;2.55;;;8.20;99.90;;;;;;5092361;28;20054;-81
2023/12/10 07:50:44;;;;;;;15.18;1.92;;;8.20;99.90;;;;;;5091854;28;20494;-81
2023/12/10 07:53:10;;;;;;;18.27;1.83;;;8.20;99.90;;;;;;5109895;28;20047;-83
2023/12/10 07:55:36;;;;;;;17.05;2.45;;;8.20;99.90;;;;;;5091723;28;20047;-82
2023/12/10 07:58:02;;;;;;;10.35;1.85;;;8.20;99.90;;;;;;5109671;28;20032;-84
2023/12/10 08:00:28;;;;;;;11.00;1.48;;;8.20;99.90;;;;;;5110562;28;20089;-81
2023/12/10 08:02:53;;;;;;;9.75;1.38;;;8.30;99.90;;;;;;5110465;28;20043;-84
2023/12/10 08:05:19;;;;;;;14.27;1.77;;;8.20;99.90;;;;;;5091925;28;20065;-83
2023/12/10 08:07:45;;;;;;;12.65;2.30;;;8.20;99.90;;;;;;5091284;28;20078;-82
2023/12/10 08:10:10;;;;;;;19.27;3.08;;;8.10;99.90;;;;;;5109925;28;20083;-84
2023/12/10 08:12:36;;;;;;;17.67;3.47;;;8.20;99.90;;;;;;5110369;28;20040;-87
2023/12/10 08:15:02;;;;;;;21.73;3.58;;;8.20;99.90;;;;;;5110263;28;20114;-88
2023/12/10 08:17:28;;;;;;;24.60;3.42;;;8.10;99.90;;;;;;5110345;28;20056;-82
2023/12/10 08:19:53;;;;;;;26.20;2.72;;;8.20;99.90;;;;;;5109813;28;20050;-81
2023/12/10 08:22:19;;;;;;;23.83;2.95;;;8.10;99.90;;;;;;5110255;28;20154;-81
2023/12/10 08:24:45;;;;;;;21.23;3.83;;;8.30;99.90;;;;;;5090980;28;20131;-84
2023/12/10 08:27:11;;;;;;;19.80;2.85;;;8.20;99.90;;;;;;5111718;28;20043;-84
2023/12/10 08:29:36;;;;;;;21.77;3.05;;;8.10;99.90;;;;;;5095371;28;20039;-81
2023/12/10 08:32:02;;;;;;;23.88;2.70;;;8.10;99.90;;;;;;5079264;28;20457;-82
2023/12/10 08:34:28;;;;;;;29.58;3.20;;;8.10;99.90;;;;;;5113922;28;20386;-81
2023/12/10 08:36:54;;;;;;;25.20;3.85;;;8.10;99.90;;;;;;5113463;28;20054;-84
2023/12/10 08:39:20;;;;;;;22.23;3.15;;;8.20;99.90;;;;;;5113637;28;20057;-81
2023/12/10 08:41:45;;;;;;;28.40;3.90;;;8.10;99.90;;;;;;5095635;28;20063;-84
2023/12/10 08:44:11;;;;;;;36.10;3.75;;;8.10;99.90;;;;;;5113852;28;20036;-85
2023/12/10 08:46:37;;;;;;;28.92;3.78;;;8.20;99.90;;;;;;5095324;28;20055;-84
2023/12/10 08:49:02;;;;;;;28.42;4.28;;;8.10;99.90;;;;;;5094530;28;20083;-85
2023/12/10 08:51:28;;;;;;;31.80;4.00;;;8.10;99.90;;;;;;5113741;28;20448;-87
2023/12/10 08:53:54;;;;;;;33.15;4.00;;;8.10;99.90;;;;;;5095292;28;20043;-86
2023/12/10 08:56:20;;;;;;;27.60;3.30;;;8.10;99.90;;;;;;5113765;28;20069;-81
2023/12/10 08:58:46;;;;;;;24.85;4.30;;;8.50;99.90;;;;;;5113865;28;20055;-84
2023/12/10 09:01:12;;;;;;;28.75;4.00;;;8.10;99.90;;;;;;5113614;28;20048;-84
2023/12/10 09:03:42;;;;;;;20.25;3.22;;;8.20;99.90;;;;;;5113928;28;20044;-90
2023/12/10 09:06:08;;;;;;;24.17;3.10;;;8.20;99.90;;;;;;5112991;28;20051;-82
2023/12/10 09:08:34;;;;;;;18.02;3.10;;;8.40;99.90;;;;;;5112913;28;20522;-81
2023/12/10 09:11:03;;;;;;;18.02;3.10;;;8.30;99.90;;;;;;5094557;28;20043;-81
2023/12/10 09:13:30;;;;;;;19.92;2.72;;;8.20;99.90;;;;;;5105097;28;20036;-84
2023/12/10 09:15:56;;;;;;;29.80;3.40;;;8.50;99.90;;;;;;5094617;28;20057;-86
2023/12/10 09:18:22;;;;;;;22.58;3.00;;;8.10;99.90;;;;;;5093886;28;20118;-81
2023/12/10 09:20:48;;;;;;;19.33;2.83;;;8.10;99.90;;;;;;5112669;28;20047;-81
2023/12/10 09:23:14;;;;;;;18.73;2.80;;;8.10;99.90;;;;;;5094567;28;20060;-86
2023/12/10 09:25:39;;;;;;;26.23;3.20;;;8.10;99.90;;;;;;5113322;28;20766;-81
2023/12/10 09:28:05;;;;;;;30.00;3.83;;;8.20;99.90;;;;;;5112566;28;20036;-82
2023/12/10 09:30:31;;;;;;;19.70;2.85;;;8.20;99.90;;;;;;5093565;28;20072;-82
2023/12/10 09:32:57;;;;;;;20.42;3.00;;;8.10;99.90;;;;;;5094493;28;20114;-83
2023/12/10 09:35:23;;;;;;;25.90;3.17;;;8.10;99.90;;;;;;5112551;28;20510;-83
2023/12/10 09:37:49;;;;;;;22.13;2.65;;;8.50;99.90;;;;;;5111606;28;20047;-84
2023/12/10 09:40:14;;;;;;;22.40;3.15;;;8.20;99.90;;;;;;5094141;28;20498;-84
2023/12/10 09:42:40;;;;;;;19.83;3.05;;;8.20;99.90;;;;;;5112108;28;20074;-83
2023/12/10 09:45:07;;;;;;;22.90;2.97;;;8.20;99.90;;;;;;5109763;28;20066;-79
2023/12/10 09:47:34;;;;;;;31.60;3.75;;;8.20;99.90;;;;;;5076145;28;20662;-79
2023/12/10 09:50:02;;;;;;;33.22;3.78;;;8.10;99.90;;;;;;5093094;28;20113;-82
2023/12/10 09:52:27;;;;;;;33.20;4.25;;;8.10;99.90;;;;;;5093466;28;20502;-81
2023/12/10 09:54:53;;;;;;;19.05;2.97;;;8.20;99.90;;;;;;5093723;28;20066;-82
2023/12/10 09:57:20;;;;;;;31.58;3.58;;;8.10;99.90;;;;;;5076432;28;20067;-84
2023/12/10 09:59:47;;;;;;;23.77;3.38;;;8.20;99.90;;;;;;5111505;28;20051;-80
2023/12/10 10:02:15;;;;;;;20.63;3.63;;;8.10;99.90;;;;;;5110163;28;20055;-83
2023/12/10 10:04:41;;;;;;;29.83;3.85;;;8.10;99.90;;;;;;5107156;28;20544;-83
2023/12/10 10:07:07;;;;;;;27.80;3.50;;;8.10;99.90;;;;;;5087464;28;20051;-82
2023/12/10 10:09:34;;;;;;;17.38;2.63;;;8.20;99.90;;;;;;5093621;28;20043;-83
2023/12/10 10:12:00;;;;;;;28.77;3.47;;;8.50;99.90;;;;;;5092747;28;20079;-82
2023/12/10 10:14:26;;;;;;;32.88;3.38;;;8.10;99.90;;;;;;5111086;28;20123;-82
2023/12/10 10:16:51;;;;;;;31.85;4.57;;;8.20;99.90;;;;;;5093289;28;20469;-81
2023/12/10 10:19:17;;;;;;;26.00;3.95;;;8.20;99.90;;;;;;5093785;28;20043;-83
2023/12/10 10:21:44;;;;;;;39.90;4.85;;;8.20;99.90;;;;;;5093327;28;20052;-79
2023/12/10 10:24:10;;;;;;;20.27;3.72;;;8.30;99.90;;;;;;5092738;28;20047;-80
2023/12/10 10:26:37;;;;;;;32.47;4.38;;;8.20;99.90;;;;;;5093306;28;20461;-82
2023/12/10 10:29:04;;;;;;;41.38;5.13;;;8.20;99.90;;;;;;5110988;28;20075;-87
2023/12/10 10:31:32;;;;;;;36.28;4.38;;;8.20;99.90;;;;;;5111418;28;20085;-80
2023/12/10 10:34:01;;;;;;;27.45;3.60;;;8.20;99.90;;;;;;5111685;28;20437;-83
2023/12/10 10:36:27;;;;;;;37.80;4.45;;;8.30;99.90;;;;;;5092747;28;20046;-80
2023/12/10 10:38:55;;;;;;;38.85;5.30;;;8.20;99.90;;;;;;5111100;28;20158;-88
2023/12/10 10:41:22;;;;;;;41.10;4.93;;;8.30;99.90;;;;;;5092750;28;20122;-81
2023/12/10 10:43:48;;;;;;;38.67;4.68;;;8.30;99.90;;;;;;5110815;28;20044;-80
2023/12/10 10:46:16;;;;;;;42.85;5.65;;;8.20;99.90;;;;;;5091773;28;20055;-84
2023/12/10 10:48:43;;;;;;;44.03;5.13;;;8.30;99.90;;;;;;5110470;28;20114;-83
2023/12/10 10:51:10;;;;;;;42.08;5.03;;;8.20;99.90;;;;;;5091864;28;20106;-79
2023/12/10 10:53:37;;;;;;;36.40;6.00;;;8.60;99.90;;;;;;5110744;28;20035;-81
2023/12/10 10:56:04;;;;;;;24.02;4.13;;;8.30;99.90;;;;;;5110747;28;20550;-82
2023/12/10 10:58:30;;;;;;;42.25;5.35;;;8.30;99.90;;;;;;5111101;28;20139;-82
2023/12/10 11:00:57;;;;;;;39.65;6.00;;;8.40;99.90;;;;;;5091721;28;20122;-85
2023/12/10 11:03:26;;;;;;;35.67;4.80;;;8.40;99.90;;;;;;5091947;28;20039;-83
2023/12/10 11:06:02;;;;;;;29.63;5.20;;;8.40;99.90;;;;;;5092095;28;20040;-85
2023/12/10 11:08:29;;;;;;;27.70;4.00;;;8.40;99.90;;;;;;5108078;28;20035;-86
2023/12/10 11:11:00;;;;;;;37.75;4.88;;;8.50;99.90;;;;;;5110496;28;20413;-82
2023/12/10 11:13:46;;;;;;;32.58;5.07;;;8.50;99.90;;;;;;5110011;28;20043;-83
2023/12/10 11:16:12;;;;;;;20.77;4.13;;;8.40;99.90;;;;;;5092143;28;20050;-83
2023/12/10 11:18:54;;;;;;;28.20;5.07;;;8.50;99.90;;;;;;5092750;28;20092;-84
2023/12/10 11:21:20;;;;;;;34.05;4.90;;;8.50;99.90;;;;;;5074654;28;20047;-86
2023/12/10 11:23:45;;;;;;;34.30;5.63;;;8.50;99.90;;;;;;5091602;28;20061;-87
2023/12/10 11:26:11;;;;;;;25.17;4.07;;;8.50;99.90;;;;;;5110165;28;20047;-80
2023/12/10 11:28:37;;;;;;;44.45;5.70;;;8.50;99.90;;;;;;5091459;28;20039;-80
2023/12/10 11:31:03;;;;;;;37.90;5.53;;;8.40;99.90;;;;;;5091320;28;20054;-81
2023/12/10 11:33:29;;;;;;;31.73;4.10;;;8.40;99.90;;;;;;5109705;28;20119;-83
2023/12/10 11:35:57;;;;;;;35.90;5.32;;;8.50;99.90;;;;;;5109728;28;20182;-86
2023/12/10 11:38:23;;;;;;;36.70;6.40;;;8.50;99.90;;;;;;5091158;28;20051;-84
2023/12/10 11:40:49;;;;;;;39.40;5.95;;;8.50;99.90;;;;;;5110131;28;20090;-84
2023/12/10 11:43:14;;;;;;;40.55;5.03;;;8.50;99.90;;;;;;5110635;28;20035;-88
2023/12/10 11:45:40;;;;;;;37.85;6.13;;;8.40;99.90;;;;;;5091994;28;20120;-82
2023/12/10 11:48:06;;;;;;;42.28;4.50;;;8.50;99.90;;;;;;5110125;28;20047;-81
2023/12/10 11:50:33;;;;;;;43.85;6.03;;;8.50;99.90;;;;;;5110348;28;20110;-83
2023/12/10 11:53:00;;;;;;;40.45;5.70;;;8.50;99.90;;;;;;5091861;28;20398;-81
2023/12/10 11:55:27;;;;;;;44.47;7.47;;;8.50;99.90;;;;;;5109465;28;20054;-84
2023/12/10 11:57:56;;;;;;;46.88;6.68;;;8.50;99.90;;;;;;5109933;28;20618;-79
2023/12/10 12:00:21;;;;;;;35.65;6.00;;;8.50;99.90;;;;;;5110025;28;20044;-79
2023/12/10 12:02:47;;;;;;;33.15;5.38;;;8.50;99.90;;;;;;5114283;28;20088;-81
2023/12/10 12:05:15;;;;;;;39.17;6.88;;;8.50;99.90;;;;;;5095032;28;20101;-80
2023/12/10 12:07:41;;;;;;;42.65;7.78;;;8.50;99.90;;;;;;5095858;28;20541;-81
2023/12/10 12:10:08;;;;;;;40.00;5.70;;;8.50;99.90;;;;;;5114152;28;20040;-79
2023/12/10 12:12:39;;;;;;;32.50;6.30;;;8.50;99.90;;;;;;5095994;28;20058;-80
2023/12/10 12:15:05;;;;;;;30.13;4.93;;;8.50;99.90;;;;;;5114714;28;20089;-84
2023/12/10 12:17:32;;;;;;;47.58;6.28;;;8.50;99.90;;;;;;5114130;28;20186;-81
2023/12/10 12:20:22;;;;;;;39.15;5.13;;;8.50;99.90;;;;;;5113349;28;20048;-79
2023/12/10 12:22:49;;;;;;;33.55;5.35;;;8.50;99.90;;;;;;5106978;28;20044;-81
2023/12/10 12:25:18;;;;;;;38.30;5.85;;;8.50;99.90;;;;;;5114183;28;20047;-84
2023/12/10 12:27:45;;;;;;;39.53;5.85;;;8.50;99.90;;;;;;5108742;28;20095;-83
2023/12/10 12:30:11;;;;;;;42.85;5.80;;;8.60;99.90;;;;;;5095587;28;20363;-79
2023/12/10 12:32:37;;;;;;;33.05;4.53;;;8.50;99.90;;;;;;5078501;28;20043;-83
2023/12/10 12:35:03;;;;;;;30.17;4.47;;;8.50;99.90;;;;;;5094213;28;20098;-86
2023/12/10 12:37:29;;;;;;;43.22;4.97;;;8.50;99.90;;;;;;5094228;28;20187;-82
2023/12/10 12:39:56;;;;;;;28.75;3.92;;;8.60;99.90;;;;;;5095134;28;20389;-84
2023/12/10 12:42:23;;;;;;;36.40;5.82;;;8.60;99.90;;;;;;5113912;28;20040;-82